createdAt,value
2019-06-15T00:01:05.931Z,4.20
2019-06-15T00:03:34.496Z,4.03
2019-06-15T00:06:03.040Z,3.70
2019-06-15T00:08:31.606Z,4.07
2019-06-15T00:11:00.176Z,3.70
2019-06-15T00:13:28.732Z,4.20
2019-06-15T00:15:57.542Z,3.90
2019-06-15T00:18:26.065Z,3.50
2019-06-15T00:20:54.581Z,3.37
2019-06-15T00:23:23.393Z,3.17
2019-06-15T00:25:51.966Z,3.30
2019-06-15T00:28:20.499Z,3.53
2019-06-15T00:30:49.025Z,3.80
2019-06-15T00:33:17.538Z,2.90
2019-06-15T00:35:46.109Z,3.53
2019-06-15T00:38:14.673Z,4.00
2019-06-15T00:40:43.307Z,3.43
2019-06-15T00:43:11.850Z,3.70
2019-06-15T00:45:40.357Z,3.80
2019-06-15T00:48:08.903Z,3.93
2019-06-15T00:50:37.518Z,3.83
2019-06-15T00:53:06.077Z,3.97
2019-06-15T00:55:34.572Z,3.40
2019-06-15T00:58:03.256Z,3.43
2019-06-15T01:00:31.820Z,3.37
2019-06-15T01:03:00.474Z,3.37
2019-06-15T01:05:29.001Z,3.43
2019-06-15T01:07:57.884Z,3.70
2019-06-15T01:10:26.684Z,3.67
2019-06-15T01:12:55.204Z,3.70
2019-06-15T01:15:23.745Z,3.47
2019-06-15T01:17:52.250Z,3.33
2019-06-15T01:20:20.787Z,3.50
2019-06-15T01:22:49.286Z,3.97
2019-06-15T01:25:17.799Z,3.27
2019-06-15T01:27:46.318Z,2.93
2019-06-15T01:30:16.436Z,2.70
2019-06-15T01:32:45.231Z,3.50
2019-06-15T01:35:13.751Z,3.40
2019-06-15T01:37:42.274Z,3.50
2019-06-15T01:40:10.878Z,4.23
2019-06-15T01:42:39.391Z,3.60
2019-06-15T01:45:07.987Z,4.40
2019-06-15T01:47:36.584Z,3.53
2019-06-15T01:50:05.162Z,4.60
2019-06-15T01:52:34.036Z,3.87
2019-06-15T01:55:02.563Z,3.70
2019-06-15T01:57:31.134Z,4.10
2019-06-15T01:59:59.694Z,3.50
2019-06-15T02:02:28.256Z,3.73
2019-06-15T02:04:56.867Z,3.50
2019-06-15T02:07:25.356Z,3.63
2019-06-15T02:09:54.274Z,3.70
2019-06-15T02:12:22.827Z,4.30
2019-06-15T02:14:51.380Z,3.90
2019-06-15T02:17:19.880Z,3.90
2019-06-15T02:19:48.464Z,3.47
2019-06-15T02:22:17.152Z,3.60
2019-06-15T02:24:45.725Z,4.00
2019-06-15T02:27:14.296Z,3.47
2019-06-15T02:29:42.792Z,3.20
2019-06-15T02:32:11.363Z,3.67
2019-06-15T02:34:39.852Z,3.90
2019-06-15T02:37:08.425Z,4.10
2019-06-15T02:39:36.943Z,3.60
2019-06-15T02:42:05.620Z,3.20
2019-06-15T02:44:34.118Z,3.00
2019-06-15T02:47:02.659Z,3.70
2019-06-15T02:49:31.157Z,4.60
2019-06-15T02:51:59.641Z,3.90
2019-06-15T02:54:28.136Z,3.70
2019-06-15T02:56:56.706Z,3.40
2019-06-15T02:59:25.254Z,3.80
2019-06-15T03:01:53.757Z,3.43
2019-06-15T03:04:22.252Z,4.00
2019-06-15T03:06:50.843Z,3.50
2019-06-15T03:09:19.428Z,3.70
2019-06-15T03:11:47.923Z,3.80
2019-06-15T03:14:16.464Z,4.47
2019-06-15T03:16:45.018Z,3.93
2019-06-15T03:19:13.459Z,3.97
2019-06-15T03:21:41.998Z,4.43
2019-06-15T03:24:11.881Z,4.23
2019-06-15T03:26:40.428Z,3.83
2019-06-15T03:29:08.995Z,4.10
2019-06-15T03:31:37.500Z,4.40
2019-06-15T03:34:05.977Z,4.17
2019-06-15T03:36:34.561Z,4.00
2019-06-15T03:39:03.441Z,3.90
2019-06-15T03:41:32.008Z,4.60
2019-06-15T03:44:00.576Z,5.03
2019-06-15T03:46:29.120Z,4.33
2019-06-15T03:48:57.619Z,4.37
2019-06-15T03:51:26.198Z,4.00
2019-06-15T03:53:54.630Z,4.33
2019-06-15T03:56:23.107Z,4.17
2019-06-15T03:58:51.597Z,4.50
2019-06-15T04:01:29.851Z,4.37
2019-06-15T04:03:58.398Z,4.40
2019-06-15T04:06:26.888Z,4.37
2019-06-15T04:08:55.388Z,4.60
2019-06-15T04:11:23.889Z,4.03
2019-06-15T04:13:52.385Z,4.60
2019-06-15T04:16:20.870Z,4.40
2019-06-15T04:18:49.355Z,4.33
2019-06-15T04:21:17.858Z,4.30
2019-06-15T04:23:46.351Z,3.90
2019-06-15T04:26:15.134Z,3.90
2019-06-15T04:28:43.688Z,3.43
2019-06-15T04:31:12.218Z,3.03
2019-06-15T04:33:40.717Z,3.30
2019-06-15T04:36:09.500Z,3.40
2019-06-15T04:38:38.054Z,3.40
2019-06-15T04:41:06.595Z,4.00
2019-06-15T04:43:35.395Z,3.37
2019-06-15T04:46:03.891Z,3.57
2019-06-15T04:48:32.435Z,3.80
2019-06-15T04:51:01.213Z,3.37
2019-06-15T04:53:29.711Z,3.83
2019-06-15T04:55:58.208Z,4.33
2019-06-15T04:58:26.715Z,3.70
2019-06-15T05:00:55.290Z,4.20
2019-06-15T05:03:23.864Z,3.70
2019-06-15T05:05:52.395Z,3.30
2019-06-15T05:08:21.202Z,4.20
2019-06-15T05:10:49.699Z,4.47
2019-06-15T05:13:18.229Z,4.37
2019-06-15T05:15:46.730Z,4.20
2019-06-15T05:18:15.260Z,3.60
2019-06-15T05:20:43.762Z,3.70
2019-06-15T05:23:12.302Z,3.93
2019-06-15T05:25:40.801Z,4.00
2019-06-15T05:28:09.411Z,3.37
2019-06-15T05:30:37.961Z,3.90
2019-06-15T05:33:06.460Z,3.40
2019-06-15T05:35:35.318Z,3.93
2019-06-15T05:38:03.848Z,3.70
2019-06-15T05:40:32.621Z,3.60
2019-06-15T05:43:01.180Z,3.33
2019-06-15T05:45:29.919Z,3.50
2019-06-15T05:47:58.759Z,3.23
2019-06-15T05:50:27.248Z,3.57
2019-06-15T05:52:55.741Z,3.43
2019-06-15T05:55:24.249Z,4.07
2019-06-15T05:57:53.020Z,3.50
2019-06-15T06:00:21.558Z,3.57
2019-06-15T06:02:50.119Z,3.13
2019-06-15T06:05:19.842Z,3.40
2019-06-15T06:07:48.323Z,3.20
2019-06-15T06:10:17.069Z,3.70
2019-06-15T06:12:45.564Z,3.80
2019-06-15T06:15:14.746Z,3.27
2019-06-15T06:17:43.825Z,3.70
2019-06-15T06:20:12.832Z,3.63
2019-06-15T06:22:41.319Z,3.47
2019-06-15T06:25:09.848Z,3.20
2019-06-15T06:27:38.347Z,3.10
2019-06-15T06:30:07.756Z,3.33
2019-06-15T06:32:36.293Z,3.50
2019-06-15T06:35:05.008Z,3.40
2019-06-15T06:37:33.521Z,2.97
2019-06-15T06:40:02.128Z,2.80
2019-06-15T06:42:30.681Z,2.00
2019-06-15T06:44:59.501Z,2.40
2019-06-15T06:47:27.981Z,2.60
2019-06-15T06:49:56.532Z,1.90
2019-06-15T06:52:25.022Z,2.20
2019-06-15T06:54:53.661Z,2.10
2019-06-15T06:57:22.374Z,1.93
2019-06-15T06:59:50.863Z,1.73
2019-06-15T07:02:19.716Z,2.23
2019-06-15T07:04:48.212Z,2.10
2019-06-15T07:07:16.696Z,2.30
2019-06-15T07:09:45.579Z,2.23
2019-06-15T07:12:14.173Z,1.90
2019-06-15T07:14:42.928Z,1.40
2019-06-15T07:17:11.449Z,1.60
2019-06-15T07:19:39.944Z,1.07
2019-06-15T07:22:08.527Z,1.20
2019-06-15T07:24:37.040Z,0.93
2019-06-15T07:27:05.527Z,0.90
2019-06-15T07:29:34.083Z,1.00
2019-06-15T07:32:02.659Z,1.40
2019-06-15T07:34:31.140Z,0.80
2019-06-15T07:37:01.690Z,1.20
2019-06-15T07:39:29.984Z,1.30
2019-06-15T07:41:58.489Z,1.47
2019-06-15T07:44:27.095Z,1.00
2019-06-15T07:46:55.575Z,1.10
2019-06-15T07:49:24.344Z,1.10
2019-06-15T07:51:53.109Z,1.03
2019-06-15T07:54:21.602Z,1.40
2019-06-15T07:56:50.090Z,1.30
2019-06-15T07:59:18.585Z,1.20
2019-06-15T08:01:47.093Z,0.90
2019-06-15T08:04:15.585Z,1.40
2019-06-15T08:06:44.317Z,1.13
2019-06-15T08:09:12.812Z,1.10
2019-06-15T08:11:41.309Z,1.17
2019-06-15T08:14:09.800Z,1.10
2019-06-15T08:16:38.290Z,0.90
2019-06-15T08:19:07.044Z,0.87
2019-06-15T08:21:35.823Z,1.07
2019-06-15T08:24:04.970Z,1.00
2019-06-15T08:26:33.607Z,1.17
2019-06-15T08:29:02.122Z,1.10
2019-06-15T08:31:30.706Z,1.20
2019-06-15T08:33:59.560Z,1.23
2019-06-15T08:36:28.176Z,1.10
2019-06-15T08:38:56.919Z,0.83
2019-06-15T08:41:25.443Z,1.10
2019-06-15T08:43:53.935Z,1.57
2019-06-15T08:46:22.411Z,1.20
2019-06-15T08:48:51.141Z,1.10
2019-06-15T08:51:19.636Z,1.10
2019-06-15T08:53:48.186Z,1.27
2019-06-15T08:56:16.685Z,1.30
2019-06-15T08:58:55.027Z,1.10
2019-06-15T09:01:15.744Z,0.80
2019-06-15T09:03:44.285Z,1.10
2019-06-15T09:06:13.436Z,1.03
2019-06-15T09:08:41.934Z,1.33
2019-06-15T09:11:10.442Z,1.20
2019-06-15T09:13:38.985Z,0.90
2019-06-15T09:16:07.475Z,0.93
2019-06-15T09:18:35.988Z,1.30
2019-06-15T09:21:04.477Z,1.17
2019-06-15T09:23:32.982Z,1.10
2019-06-15T09:26:01.488Z,1.10
2019-06-15T09:28:30.052Z,1.00
2019-06-15T09:30:58.970Z,0.93
2019-06-15T09:33:27.471Z,1.07
2019-06-15T09:35:55.972Z,0.97
2019-06-15T09:38:24.479Z,1.07
2019-06-15T09:40:52.975Z,1.20
2019-06-15T09:43:21.807Z,1.00
2019-06-15T09:45:50.304Z,1.20
2019-06-15T09:48:18.815Z,1.00
2019-06-15T09:50:47.296Z,1.10
2019-06-15T09:53:15.801Z,0.80
2019-06-15T09:55:44.538Z,1.10
2019-06-15T09:58:13.327Z,1.27
2019-06-15T10:00:41.836Z,1.13
2019-06-15T10:03:10.404Z,1.37
2019-06-15T10:05:39.270Z,1.30
2019-06-15T10:08:08.147Z,1.30
2019-06-15T10:10:36.913Z,1.20
2019-06-15T10:13:05.453Z,1.40
2019-06-15T10:15:33.961Z,1.40
2019-06-15T10:18:02.503Z,1.20
2019-06-15T10:20:30.979Z,1.30
2019-06-15T10:22:59.507Z,1.47
2019-06-15T10:25:28.061Z,1.57
2019-06-15T10:27:57.021Z,1.10
2019-06-15T10:30:25.825Z,1.10
2019-06-15T10:32:54.323Z,1.20
2019-06-15T10:35:23.069Z,1.17
2019-06-15T10:37:51.595Z,1.40
2019-06-15T10:40:20.347Z,1.53
2019-06-15T10:42:48.891Z,1.80
2019-06-15T10:45:17.415Z,1.50
2019-06-15T10:47:45.938Z,1.53
2019-06-15T10:50:14.464Z,1.60
2019-06-15T10:52:43.045Z,1.73
2019-06-15T10:55:11.550Z,1.60
2019-06-15T10:57:40.360Z,1.10
2019-06-15T11:00:08.910Z,1.50
2019-06-15T11:02:37.657Z,1.50
2019-06-15T11:05:06.756Z,1.53
2019-06-15T11:07:35.509Z,1.47
2019-06-15T11:10:05.017Z,1.53
2019-06-15T11:12:45.414Z,1.50
2019-06-15T11:15:03.848Z,1.30
2019-06-15T11:17:32.994Z,1.50
2019-06-15T11:20:01.515Z,1.23
2019-06-15T11:22:30.046Z,1.13
2019-06-15T11:24:58.811Z,1.40
2019-06-15T11:27:27.325Z,1.40
2019-06-15T11:29:55.886Z,1.40
2019-06-15T11:32:24.399Z,1.40
2019-06-15T11:34:52.927Z,1.53
2019-06-15T11:37:21.441Z,1.37
2019-06-15T11:39:50.043Z,1.60
2019-06-15T11:42:18.729Z,1.40
2019-06-15T11:44:47.313Z,1.50
2019-06-15T11:47:15.799Z,1.50
2019-06-15T11:49:44.337Z,1.53
2019-06-15T11:52:13.112Z,1.50
2019-06-15T11:54:41.648Z,1.57
2019-06-15T11:57:10.151Z,1.43
2019-06-15T11:59:38.996Z,1.30
2019-06-15T12:02:07.494Z,1.47
2019-06-15T12:04:36.121Z,1.50
2019-06-15T12:07:04.618Z,1.33
2019-06-15T12:09:33.161Z,1.40
2019-06-15T12:12:01.683Z,1.20
2019-06-15T12:14:30.213Z,1.70
2019-06-15T12:16:58.712Z,1.20
2019-06-15T12:19:27.224Z,1.10
2019-06-15T12:21:55.818Z,1.30
2019-06-15T12:24:24.291Z,1.40
2019-06-15T12:26:53.131Z,1.30
2019-06-15T12:29:21.637Z,1.43
2019-06-15T12:31:50.237Z,1.30
2019-06-15T12:34:21.129Z,1.23
2019-06-15T12:36:48.981Z,1.30
2019-06-15T12:39:17.517Z,1.20
2019-06-15T12:41:46.061Z,1.30
2019-06-15T12:44:14.955Z,1.10
2019-06-15T12:46:43.795Z,1.00
2019-06-15T12:49:12.290Z,1.40
2019-06-15T12:51:41.025Z,1.10
2019-06-15T12:54:09.583Z,1.30
2019-06-15T12:56:38.129Z,1.30
2019-06-15T12:59:06.635Z,1.07
2019-06-15T13:01:35.201Z,1.17
2019-06-15T13:04:03.710Z,1.40
2019-06-15T13:06:32.227Z,1.70
2019-06-15T13:09:00.729Z,1.30
2019-06-15T13:11:29.246Z,1.20
2019-06-15T13:13:57.813Z,1.47
2019-06-15T13:16:38.589Z,1.43
2019-06-15T13:18:56.816Z,1.37
2019-06-15T13:21:25.326Z,1.57
2019-06-15T13:23:54.076Z,1.30
2019-06-15T13:26:22.610Z,1.30
2019-06-15T13:28:51.367Z,1.40
2019-06-15T13:31:20.190Z,1.20
2019-06-15T13:33:48.706Z,1.27
2019-06-15T13:36:17.235Z,1.47
2019-06-15T13:38:45.752Z,1.20
2019-06-15T13:41:14.280Z,1.57
2019-06-15T13:43:42.877Z,1.50
2019-06-15T13:46:11.627Z,1.60
2019-06-15T13:48:40.130Z,1.40
2019-06-15T13:51:08.729Z,1.20
2019-06-15T13:53:37.300Z,1.70
2019-06-15T13:56:05.804Z,1.53
2019-06-15T13:58:34.309Z,1.30
2019-06-15T14:01:02.874Z,1.50
2019-06-15T14:03:31.741Z,1.43
2019-06-15T14:06:00.263Z,1.30
2019-06-15T14:08:29.114Z,1.53
2019-06-15T14:10:57.970Z,1.80
2019-06-15T14:13:26.499Z,1.60
2019-06-15T14:15:55.384Z,1.50
2019-06-15T14:18:23.901Z,1.50
2019-06-15T14:20:52.409Z,1.67
2019-06-15T14:23:20.936Z,1.57
2019-06-15T14:25:49.448Z,1.50
2019-06-15T14:28:18.310Z,1.70
2019-06-15T14:30:46.871Z,1.70
2019-06-15T14:33:15.373Z,1.67
2019-06-15T14:35:44.230Z,1.70
2019-06-15T14:38:13.061Z,1.63
2019-06-15T14:40:41.661Z,1.83
2019-06-15T14:43:10.169Z,1.97
2019-06-15T14:45:38.722Z,1.60
2019-06-15T14:48:07.223Z,1.37
2019-06-15T14:50:35.799Z,1.63
2019-06-15T14:53:04.326Z,1.30
2019-06-15T14:55:32.826Z,1.73
2019-06-15T14:58:01.659Z,1.60
2019-06-15T15:00:30.507Z,1.80
2019-06-15T15:02:59.016Z,1.90
2019-06-15T15:05:27.699Z,1.90
2019-06-15T15:07:56.336Z,1.70
2019-06-15T15:10:26.711Z,1.53
2019-06-15T15:12:56.648Z,1.70
2019-06-15T15:15:25.417Z,2.00
2019-06-15T15:17:53.968Z,1.50
2019-06-15T15:20:22.498Z,1.50
2019-06-15T15:22:51.252Z,2.00
2019-06-15T15:25:19.745Z,1.70
2019-06-15T15:27:48.249Z,1.53
2019-06-15T15:30:27.120Z,3.20
2019-06-15T15:32:57.183Z,2.00
2019-06-15T15:35:26.892Z,2.00
2019-06-15T15:37:56.719Z,2.40
2019-06-15T15:40:27.475Z,2.90
2019-06-15T15:42:56.255Z,2.13
2019-06-15T15:45:26.258Z,6.33
2019-06-15T15:47:54.897Z,2.00
2019-06-15T15:50:26.062Z,4.10
2019-06-15T15:52:53.654Z,3.00
2019-06-15T15:55:22.339Z,1.60
2019-06-15T15:57:50.947Z,1.67
2019-06-15T16:00:30.549Z,1.77
2019-06-15T16:02:59.080Z,1.80
2019-06-15T16:05:27.952Z,2.13
2019-06-15T16:07:56.974Z,1.93
2019-06-15T16:10:26.645Z,1.63
2019-06-15T16:12:56.795Z,1.90
2019-06-15T16:15:26.488Z,2.23
2019-06-15T16:17:56.325Z,1.60
2019-06-15T16:20:26.334Z,2.20
2019-06-15T16:22:56.527Z,2.10
2019-06-15T16:25:26.633Z,1.60
2019-06-15T16:27:56.647Z,3.10
2019-06-15T16:30:48.386Z,6.90
2019-06-15T16:33:04.002Z,3.00
2019-06-15T16:35:31.391Z,2.30
2019-06-15T16:37:59.915Z,2.10
2019-06-15T16:40:38.185Z,1.90
2019-06-15T16:43:07.092Z,2.07
2019-06-15T16:45:35.851Z,1.70
2019-06-15T16:48:06.352Z,2.20
2019-06-15T16:50:36.677Z,2.17
2019-06-15T16:53:05.190Z,1.67
2019-06-15T16:55:36.548Z,2.17
2019-06-15T16:58:07.112Z,2.40
2019-06-15T17:00:36.329Z,2.30
2019-06-15T17:03:19.951Z,2.23
2019-06-15T17:05:36.217Z,2.07
2019-06-15T17:08:06.962Z,2.20
2019-06-15T17:10:38.421Z,2.23
2019-06-15T17:13:06.991Z,2.27
2019-06-15T17:15:37.118Z,2.57
2019-06-15T17:18:05.855Z,2.20
2019-06-15T17:20:41.068Z,1.80
2019-06-15T17:23:09.594Z,1.93
2019-06-15T17:25:38.202Z,2.30
2019-06-15T17:28:06.723Z,1.90
2019-06-15T17:30:37.069Z,2.27
2019-06-15T17:33:08.217Z,2.37
2019-06-15T17:35:36.302Z,2.30
2019-06-15T17:38:04.760Z,2.00
2019-06-15T17:40:33.482Z,2.00
2019-06-15T17:43:02.229Z,2.20
2019-06-15T17:45:30.758Z,2.43
2019-06-15T17:47:59.216Z,2.47
2019-06-15T17:50:36.315Z,2.03
2019-06-15T17:53:06.944Z,2.20
2019-06-15T17:55:36.686Z,2.30
2019-06-15T17:58:06.551Z,2.00
2019-06-15T18:00:46.958Z,2.00
2019-06-15T18:03:16.969Z,2.90
2019-06-15T18:05:47.998Z,1.83
2019-06-15T18:08:16.754Z,2.13
2019-06-15T18:10:47.738Z,2.37
2019-06-15T18:13:17.064Z,2.30
2019-06-15T18:15:47.583Z,2.23
2019-06-15T18:18:16.980Z,2.47
2019-06-15T18:20:45.785Z,1.90
2019-06-15T18:23:16.968Z,2.13
2019-06-15T18:25:46.582Z,2.17
2019-06-15T18:28:17.142Z,2.33
2019-06-15T18:30:46.613Z,2.13
2019-06-15T18:33:16.341Z,2.23
2019-06-15T18:35:47.281Z,2.60
2019-06-15T18:38:15.269Z,2.37
2019-06-15T18:40:43.785Z,2.50
2019-06-15T18:43:12.324Z,1.93
2019-06-15T18:45:40.817Z,2.33
2019-06-15T18:48:10.022Z,2.10
2019-06-15T18:50:39.113Z,2.17
2019-06-15T18:53:07.667Z,2.37
2019-06-15T18:55:36.508Z,2.33
2019-06-15T18:58:05.476Z,2.50
2019-06-15T19:00:33.967Z,2.50
2019-06-15T19:03:02.506Z,2.27
2019-06-15T19:05:31.011Z,2.47
2019-06-15T19:07:59.803Z,2.47
2019-06-15T19:10:32.648Z,2.30
2019-06-15T19:13:01.207Z,2.57
2019-06-15T19:15:30.103Z,2.17
2019-06-15T19:17:58.952Z,2.30
2019-06-15T19:20:27.754Z,2.50
2019-06-15T19:22:56.785Z,2.73
2019-06-15T19:25:27.039Z,2.73
2019-06-15T19:27:55.594Z,2.63
2019-06-15T19:30:26.341Z,2.83
2019-06-15T19:32:56.526Z,2.67
2019-06-15T19:35:26.330Z,2.90
2019-06-15T19:37:56.725Z,2.47
2019-06-15T19:40:26.765Z,2.60
2019-06-15T19:42:56.986Z,2.83
2019-06-15T19:45:26.770Z,2.53
2019-06-15T19:47:55.682Z,2.23
2019-06-15T19:50:26.674Z,2.70
2019-06-15T19:52:56.521Z,2.40
2019-06-15T19:55:26.820Z,2.70
2019-06-15T19:57:56.847Z,2.80
2019-06-15T20:00:27.062Z,2.50
2019-06-15T20:02:57.290Z,2.43
2019-06-15T20:05:28.628Z,2.40
2019-06-15T20:07:57.014Z,2.53
2019-06-15T20:10:26.650Z,2.40
2019-06-15T20:12:56.244Z,2.40
2019-06-15T20:15:26.271Z,2.20
2019-06-15T20:17:56.967Z,2.63
2019-06-15T20:20:26.652Z,2.40
2019-06-15T20:22:56.087Z,2.47
2019-06-15T20:25:26.693Z,2.50
2019-06-15T20:27:56.409Z,2.10
2019-06-15T20:30:24.924Z,2.40
2019-06-15T20:32:53.437Z,2.53
2019-06-15T20:35:22.279Z,2.73
2019-06-15T20:37:50.793Z,2.40
2019-06-15T20:40:19.310Z,2.60
2019-06-15T20:42:47.816Z,2.40
2019-06-15T20:45:16.621Z,2.70
2019-06-15T20:47:47.775Z,2.67
2019-06-15T20:50:25.478Z,2.60
2019-06-15T20:52:47.153Z,2.77
2019-06-15T20:55:16.299Z,2.40
2019-06-15T20:57:46.078Z,2.70
2019-06-15T21:00:16.747Z,2.17
2019-06-15T21:02:45.249Z,2.20
2019-06-15T21:05:30.245Z,2.40
2019-06-15T21:07:46.569Z,2.53
2019-06-15T21:10:16.015Z,2.37
2019-06-15T21:12:46.909Z,2.97
2019-06-15T21:15:14.925Z,2.83
2019-06-15T21:17:43.420Z,2.33
2019-06-15T21:20:12.900Z,2.37
2019-06-15T21:22:41.392Z,2.43
2019-06-15T21:25:10.003Z,2.27
2019-06-15T21:27:38.842Z,2.40
2019-06-15T21:30:07.480Z,2.47
2019-06-15T21:32:37.033Z,2.23
2019-06-15T21:35:06.615Z,2.60
2019-06-15T21:37:37.071Z,2.47
2019-06-15T21:40:06.063Z,2.80
2019-06-15T21:42:36.179Z,2.40
2019-06-15T21:45:07.571Z,2.70
2019-06-15T21:47:37.119Z,2.80
2019-06-15T21:50:06.328Z,2.53
2019-06-15T21:52:36.416Z,2.30
2019-06-15T21:55:06.982Z,2.87
2019-06-15T21:57:36.505Z,2.67
2019-06-15T22:02:30.035Z,2.80
2019-06-15T22:04:58.553Z,2.80
2019-06-15T22:07:27.072Z,2.80
2019-06-15T22:09:55.567Z,3.20
2019-06-15T22:12:24.062Z,3.50
2019-06-15T22:14:52.555Z,3.33
2019-06-15T22:17:21.038Z,2.50
2019-06-15T22:19:49.541Z,2.60
2019-06-15T22:22:18.019Z,2.10
2019-06-15T22:24:47.010Z,2.90
2019-06-15T22:27:17.107Z,2.33
2019-06-15T22:29:47.256Z,2.67
2019-06-15T22:32:16.577Z,2.80
2019-06-15T22:34:47.055Z,3.00
2019-06-15T22:37:17.312Z,2.80
2019-06-15T22:39:46.631Z,2.80
2019-06-15T22:42:16.817Z,2.63
2019-06-15T22:44:46.423Z,3.20
2019-06-15T22:47:16.850Z,2.93
2019-06-15T22:49:46.827Z,2.90
2019-06-15T22:52:17.105Z,2.83
2019-06-15T22:54:46.524Z,2.87
2019-06-15T22:57:16.707Z,2.97
2019-06-15T22:59:46.161Z,3.10
2019-06-15T23:02:16.773Z,2.50
2019-06-15T23:04:47.100Z,2.73
2019-06-15T23:07:16.172Z,2.70
2019-06-15T23:09:46.814Z,2.57
2019-06-15T23:12:14.963Z,2.80
2019-06-15T23:14:46.446Z,2.30
2019-06-15T23:17:13.985Z,2.50
2019-06-15T23:19:42.458Z,2.53
2019-06-15T23:22:11.281Z,2.73
2019-06-15T23:24:39.777Z,2.63
2019-06-15T23:27:08.264Z,2.50
2019-06-15T23:29:36.916Z,2.30
2019-06-15T23:32:06.296Z,2.67
2019-06-15T23:34:35.322Z,2.80
2019-06-15T23:37:06.766Z,2.87
2019-06-15T23:39:36.180Z,2.97
2019-06-15T23:42:06.123Z,3.07
2019-06-15T23:44:36.161Z,2.50
2019-06-15T23:47:04.775Z,2.60
2019-06-15T23:49:33.297Z,3.07
2019-06-15T23:52:01.807Z,2.73
2019-06-15T23:54:30.316Z,2.60
2019-06-15T23:56:58.802Z,2.90
2019-06-15T23:59:27.301Z,2.40
